Time;durP1;ratioP1;P1;durP2;ratioP2;P2;SDS_P1;SDS_P2;PMS_P1;PMS_P2;Temp;Humidity;BMP_temperature;BMP_pressure;BME280_temperature;BME280_humidity;BME280_pressure;Samples;Min_cycle;Max_cycle;Signal;HPM_P1;HPM_P2
2021/09/16 00:02:04;;;;;;;9.23;3.45;;;;;;;14.72;99.92;100072.47;5056299;28;20041;-70
2021/09/16 00:04:31;;;;;;;8.23;3.55;;;;;;;14.73;100.00;100080.44;5038592;28;20457;-67
2021/09/16 00:06:58;;;;;;;7.65;2.90;;;;;;;14.69;100.00;100070.88;5055067;28;20434;-73
2021/09/16 00:09:25;;;;;;;9.30;3.58;;;;;;;14.55;100.00;100072.00;5056144;28;20041;-70
2021/09/16 00:11:51;;;;;;;11.63;3.05;;;;;;;14.55;100.00;100071.13;5056004;28;20051;-70
2021/09/16 00:14:21;;;;;;;12.90;3.42;;;;;;;14.50;100.00;100075.03;5054494;28;20049;-68
2021/09/16 00:16:48;;;;;;;10.35;3.30;;;;;;;14.39;100.00;100069.69;5056018;28;20067;-71
2021/09/16 00:19:14;;;;;;;13.18;3.40;;;;;;;14.46;100.00;100072.72;5054871;28;20049;-72
2021/09/16 00:21:43;;;;;;;8.45;3.33;;;;;;;14.37;100.00;100071.59;5055973;28;20429;-71
2021/09/16 00:24:10;;;;;;;12.55;3.92;;;;;;;14.45;100.00;100082.63;5055746;28;20051;-69
2021/09/16 00:26:37;;;;;;;8.45;3.35;;;;;;;14.34;100.00;100087.97;5055900;28;20049;-69
2021/09/16 00:29:03;;;;;;;11.85;3.33;;;;;;;14.28;100.00;100089.31;5055511;28;20049;-67
2021/09/16 00:31:30;;;;;;;9.50;3.05;;;;;;;14.23;100.00;100083.44;5054523;28;20091;-68
2021/09/16 00:33:57;;;;;;;9.65;3.10;;;;;;;14.25;100.00;100082.34;5050488;28;20053;-69
2021/09/16 00:36:24;;;;;;;9.98;3.05;;;;;;;14.18;100.00;100086.50;5035694;28;20045;-69
2021/09/16 00:38:51;;;;;;;10.65;2.60;;;;;;;14.17;100.00;100087.44;5035541;28;20049;-69
2021/09/16 00:41:18;;;;;;;7.07;3.00;;;;;;;14.14;100.00;100090.38;5035527;28;20089;-68
2021/09/16 00:43:44;;;;;;;9.07;3.08;;;;;;;14.18;100.00;100096.34;5044377;28;20044;-68
2021/09/16 00:46:11;;;;;;;13.10;3.40;;;;;;;14.08;100.00;100101.56;5037734;28;20441;-68
2021/09/16 00:48:38;;;;;;;8.82;2.92;;;;;;;14.04;100.00;100100.09;5048268;28;20110;-68
2021/09/16 00:51:05;;;;;;;8.85;2.90;;;;;;;14.02;100.00;100099.34;5052243;28;20037;-68
2021/09/16 00:53:33;;;;;;;9.93;2.80;;;;;;;13.99;100.00;100098.63;5054191;28;20106;-67
2021/09/16 00:56:00;;;;;;;12.57;2.38;;;;;;;14.00;100.00;100096.78;5052886;28;20138;-68
2021/09/16 00:58:29;;;;;;;9.82;2.67;;;;;;;14.06;100.00;100098.16;5054174;28;20049;-68
2021/09/16 01:00:56;;;;;;;10.30;2.88;;;;;;;14.08;100.00;100112.31;5055091;28;20088;-68
2021/09/16 01:03:23;;;;;;;7.25;3.15;;;;;;;14.06;100.00;100112.41;5055151;28;20041;-68
2021/09/16 01:05:51;;;;;;;11.38;2.85;;;;;;;14.05;100.00;100112.56;5054078;28;20049;-68
2021/09/16 01:08:18;;;;;;;5.15;2.95;;;;;;;13.98;100.00;100107.66;5053994;28;20450;-68
2021/09/16 01:10:46;;;;;;;11.07;2.80;;;;;;;13.96;100.00;100111.44;5037372;28;20126;-68
2021/09/16 01:13:15;;;;;;;11.15;3.28;;;;;;;13.99;100.00;100109.38;5055040;28;20338;-68
2021/09/16 01:15:43;;;;;;;7.75;2.47;;;;;;;13.95;100.00;100107.88;5055022;28;20375;-67
2021/09/16 01:18:11;;;;;;;7.55;2.83;;;;;;;13.90;100.00;100115.41;5037284;28;20430;-68
2021/09/16 01:20:40;;;;;;;7.70;2.40;;;;;;;13.79;100.00;100104.66;5055256;28;20047;-68
2021/09/16 01:23:07;;;;;;;10.73;2.90;;;;;;;13.80;100.00;100111.72;5053753;28;20460;-68
2021/09/16 01:25:35;;;;;;;6.97;2.35;;;;;;;13.74;100.00;100114.88;5054200;28;20041;-68
2021/09/16 01:28:03;;;;;;;5.40;2.45;;;;;;;13.69;100.00;100124.09;5053634;28;20045;-68
2021/09/16 01:30:30;;;;;;;6.32;2.63;;;;;;;13.67;100.00;100123.38;5053592;28;20076;-68
2021/09/16 01:32:58;;;;;;;9.73;2.60;;;;;;;13.62;100.00;100130.91;5054840;28;20052;-69
2021/09/16 01:35:26;;;;;;;9.20;2.53;;;;;;;13.63;100.00;100132.66;5053665;28;20445;-68
2021/09/16 01:37:53;;;;;;;7.85;2.20;;;;;;;13.72;100.00;100136.44;5054695;28;20040;-68
2021/09/16 01:40:20;;;;;;;10.65;2.97;;;;;;;13.62;100.00;100130.91;5053699;28;20041;-67
2021/09/16 01:42:47;;;;;;;15.10;4.03;;;;;;;13.73;100.00;100138.16;5054701;28;20454;-68
2021/09/16 01:45:22;;;;;;;7.60;2.40;;;;;;;13.68;100.00;100138.50;5054740;28;20041;-69
2021/09/16 01:47:49;;;;;;;10.05;2.53;;;;;;;13.55;100.00;100135.88;5054772;28;20095;-69
2021/09/16 01:50:19;;;;;;;10.65;3.08;;;;;;;13.42;100.00;100130.53;5054912;28;20059;-68
2021/09/16 01:52:47;;;;;;;6.43;2.58;;;;;;;13.39;100.00;100137.94;5054645;28;20069;-68
2021/09/16 01:55:15;;;;;;;10.95;2.80;;;;;;;13.41;100.00;100136.03;5039361;28;20045;-68
2021/09/16 01:57:42;;;;;;;9.00;2.88;;;;;;;13.40;100.00;100132.47;5034533;28;20038;-68
2021/09/16 02:00:10;;;;;;;10.13;3.33;;;;;;;13.31;100.00;100133.16;5033798;28;20389;-68
2021/09/16 02:02:40;;;;;;;9.20;3.20;;;;;;;13.29;100.00;100133.25;5034472;28;20073;-68
2021/09/16 02:05:07;;;;;;;8.00;3.50;;;;;;;13.27;100.00;100139.69;5034479;28;20096;-68
2021/09/16 02:07:34;;;;;;;12.65;3.65;;;;;;;13.20;100.00;100143.78;5034460;28;20041;-69
2021/09/16 02:10:04;;;;;;;8.95;3.00;;;;;;;13.16;100.00;100141.34;5034818;28;20037;-69
2021/09/16 02:12:31;;;;;;;7.95;3.65;;;;;;;13.14;100.00;100145.94;5033396;28;20046;-68
2021/09/16 02:14:58;;;;;;;14.27;3.28;;;;;;;13.14;100.00;100151.31;5033464;28;20509;-68
2021/09/16 02:17:25;;;;;;;10.13;3.65;;;;;;;13.10;100.00;100152.50;5034371;28;20049;-68
2021/09/16 02:19:52;;;;;;;8.13;3.58;;;;;;;13.07;100.00;100147.34;5034450;28;20041;-68
2021/09/16 02:22:18;;;;;;;11.75;4.30;;;;;;;13.05;100.00;100149.28;5016869;28;20045;-68
2021/09/16 02:24:45;;;;;;;11.25;4.05;;;;;;;13.03;100.00;100157.44;5033445;28;20053;-68
2021/09/16 02:27:12;;;;;;;11.43;3.97;;;;;;;13.03;100.00;100159.28;5034252;28;20049;-68
2021/09/16 02:29:39;;;;;;;12.27;4.60;;;;;;;13.03;100.00;100157.44;5034070;28;20057;-67
2021/09/16 02:32:07;;;;;;;12.88;4.78;;;;;;;13.01;100.00;100167.41;5034222;28;20045;-68
2021/09/16 02:34:33;;;;;;;9.98;3.92;;;;;;;13.00;100.00;100164.84;5042210;28;20445;-68
2021/09/16 02:37:00;;;;;;;8.57;4.75;;;;;;;13.02;100.00;100166.44;5055766;28;20041;-68
2021/09/16 02:39:27;;;;;;;7.60;4.43;;;;;;;13.01;100.00;100156.69;5056821;28;20076;-68
2021/09/16 02:41:54;;;;;;;8.57;4.63;;;;;;;12.98;100.00;100162.28;5056694;28;20099;-68
2021/09/16 02:44:20;;;;;;;6.05;4.95;;;;;;;12.87;100.00;100160.34;5057609;28;20119;-68
2021/09/16 02:46:47;;;;;;;12.27;4.68;;;;;;;12.97;100.00;100173.09;5039393;28;20057;-68
2021/09/16 02:49:14;;;;;;;13.18;4.53;;;;;;;12.97;100.00;100173.94;5056601;28;20053;-68
2021/09/16 02:51:41;;;;;;;7.20;4.53;;;;;;;12.94;100.00;100170.63;5057532;28;20041;-68
2021/09/16 02:54:08;;;;;;;11.10;4.55;;;;;;;12.90;100.00;100173.53;5050584;28;20041;-68
2021/09/16 02:56:35;;;;;;;11.77;4.63;;;;;;;12.88;100.00;100171.94;5036325;28;20053;-69
2021/09/16 02:59:02;;;;;;;8.50;4.43;;;;;;;12.89;100.00;100173.63;5037356;28;20446;-68
2021/09/16 03:01:29;;;;;;;10.27;4.93;;;;;;;12.92;100.00;100168.06;5037525;28;20046;-68
2021/09/16 03:03:55;;;;;;;10.02;4.93;;;;;;;12.88;100.00;100174.59;5036305;28;20049;-68
2021/09/16 03:06:22;;;;;;;10.93;4.55;;;;;;;12.87;100.00;100170.22;5036421;28;20042;-68
2021/09/16 03:08:49;;;;;;;9.70;4.65;;;;;;;12.89;100.00;100170.97;5037376;28;20045;-68
2021/09/16 03:11:16;;;;;;;11.85;4.80;;;;;;;12.99;100.00;100179.19;5037357;28;20045;-68
2021/09/16 03:13:43;;;;;;;10.48;4.88;;;;;;;13.02;100.00;100174.47;5037250;28;20045;-68
2021/09/16 03:16:09;;;;;;;14.48;4.35;;;;;;;12.92;100.00;100162.72;5037306;28;20041;-68
2021/09/16 03:18:37;;;;;;;12.52;4.97;;;;;;;13.07;100.00;100181.34;5036085;28;20046;-68
2021/09/16 03:21:04;;;;;;;9.32;4.40;;;;;;;13.09;100.00;100176.72;5037239;28;20516;-69
2021/09/16 03:23:30;;;;;;;8.90;4.28;;;;;;;13.14;100.00;100182.63;5035988;28;20053;-68
2021/09/16 03:25:57;;;;;;;9.27;4.18;;;;;;;13.14;100.00;100185.28;5019559;28;20045;-68
2021/09/16 03:28:24;;;;;;;15.60;4.65;;;;;;;13.24;100.00;100172.94;5036737;28;20061;-69
2021/09/16 03:30:51;;;;;;;9.45;4.10;;;;;;;13.26;100.00;100168.34;5035890;28;20071;-70
2021/09/16 03:33:18;;;;;;;10.95;4.95;;;;;;;13.23;100.00;100175.75;5036843;28;20049;-68
2021/09/16 03:35:44;;;;;;;11.00;4.28;;;;;;;13.22;100.00;100177.56;5054519;28;20036;-68
2021/09/16 03:38:11;;;;;;;9.40;4.15;;;;;;;13.15;100.00;100166.44;5056713;28;20060;-68
2021/09/16 03:40:38;;;;;;;10.38;4.78;;;;;;;13.20;100.00;100170.59;5055850;28;20099;-68
2021/09/16 03:43:06;;;;;;;10.65;4.53;;;;;;;13.15;100.00;100184.31;5056569;28;20053;-68
2021/09/16 03:45:33;;;;;;;10.20;4.90;;;;;;;13.13;100.00;100180.91;5055120;28;20069;-68
2021/09/16 03:47:59;;;;;;;10.10;4.32;;;;;;;13.18;100.00;100181.41;5055909;28;20049;-68
2021/09/16 03:50:26;;;;;;;8.77;4.53;;;;;;;13.13;100.00;100173.72;5056515;28;20045;-68
2021/09/16 03:52:53;;;;;;;13.90;5.10;;;;;;;13.25;100.00;100177.31;5055668;28;20052;-68
2021/09/16 03:55:20;;;;;;;8.48;4.20;;;;;;;13.29;100.00;100175.31;5043433;28;20052;-68
2021/09/16 03:57:46;;;;;;;7.28;4.13;;;;;;;13.27;100.00;100171.84;5055237;28;20071;-68
2021/09/16 04:00:14;;;;;;;10.60;5.05;;;;;;;13.19;100.00;100153.69;5055010;28;20083;-68
2021/09/16 04:02:40;;;;;;;10.23;4.60;;;;;;;13.30;100.00;100163.63;5055296;28;20041;-69
2021/09/16 04:05:08;;;;;;;10.40;4.50;;;;;;;13.21;100.00;100172.31;5056216;28;20091;-68
2021/09/16 04:07:34;;;;;;;11.57;4.93;;;;;;;13.24;100.00;100172.09;5056378;28;20065;-69
2021/09/16 04:10:04;;;;;;;11.75;4.65;;;;;;;13.13;100.00;100165.66;5056520;28;20132;-69
2021/09/16 04:12:31;;;;;;;12.27;4.80;;;;;;;13.03;100.00;100172.66;5055343;28;20426;-68
2021/09/16 04:14:58;;;;;;;8.55;4.28;;;;;;;12.93;100.00;100167.09;5054999;28;20053;-69
2021/09/16 04:17:25;;;;;;;11.98;5.13;;;;;;;12.96;100.00;100161.53;5055069;28;20049;-68
2021/09/16 04:19:51;;;;;;;8.65;4.60;;;;;;;12.91;100.00;100160.97;5056105;28;20048;-69
2021/09/16 04:22:18;;;;;;;9.65;4.72;;;;;;;12.86;100.00;100161.31;5054918;28;20048;-68
2021/09/16 04:24:45;;;;;;;11.40;4.80;;;;;;;12.75;100.00;100146.00;5055755;28;20323;-68
2021/09/16 04:27:13;;;;;;;12.10;4.53;;;;;;;12.81;100.00;100160.78;5071452;28;20094;-68
2021/09/16 04:29:41;;;;;;;13.50;4.65;;;;;;;12.85;100.00;100169.47;5055569;28;20095;-68
2021/09/16 04:32:09;;;;;;;11.00;4.20;;;;;;;12.82;100.00;100161.66;5055754;28;20045;-68
2021/09/16 04:34:37;;;;;;;8.60;4.25;;;;;;;12.88;100.00;100172.81;5043894;28;20049;-68
2021/09/16 04:37:04;;;;;;;13.18;4.50;;;;;;;12.88;100.00;100167.44;5054874;28;20045;-68
2021/09/16 04:39:32;;;;;;;11.88;4.00;;;;;;;12.87;100.00;100163.03;5055511;28;20045;-68
2021/09/16 04:41:58;;;;;;;9.35;4.13;;;;;;;12.90;100.00;100160.16;5055606;28;20440;-67
2021/09/16 04:44:25;;;;;;;12.98;4.20;;;;;;;12.89;100.00;100160.25;5053844;28;20052;-74
2021/09/16 04:46:52;;;;;;;8.18;4.03;;;;;;;12.86;100.00;100163.16;5055029;28;20037;-73
2021/09/16 04:49:19;;;;;;;13.23;4.47;;;;;;;12.90;100.00;100165.50;5053381;28;20057;-73
2021/09/16 04:51:46;;;;;;;11.07;4.25;;;;;;;12.99;100.00;100174.72;5052974;28;20051;-72
2021/09/16 04:54:13;;;;;;;9.20;3.88;;;;;;;13.07;100.00;100189.38;5048193;28;20037;-67
2021/09/16 04:56:39;;;;;;;10.60;5.07;;;;;;;13.03;100.00;100186.06;5035205;28;20041;-69
2021/09/16 04:59:06;;;;;;;8.60;4.00;;;;;;;13.09;100.00;100190.13;5035122;28;20045;-68
2021/09/16 05:01:33;;;;;;;7.95;4.43;;;;;;;13.11;100.00;100194.41;5037850;28;20045;-68
2021/09/16 05:04:00;;;;;;;7.82;4.82;;;;;;;13.17;100.00;100191.28;5053988;28;20041;-68
2021/09/16 05:06:27;;;;;;;9.05;4.70;;;;;;;13.20;100.00;100189.34;5053742;28;20350;-67
2021/09/16 05:08:54;;;;;;;7.88;4.57;;;;;;;13.17;100.00;100183.25;5042741;28;20041;-66
2021/09/16 05:11:21;;;;;;;10.07;4.47;;;;;;;13.27;100.00;100186.13;5054435;28;20063;-69
2021/09/16 05:13:48;;;;;;;12.20;4.40;;;;;;;13.27;100.00;100199.53;5051799;28;20115;-69
2021/09/16 05:16:16;;;;;;;10.13;4.82;;;;;;;13.29;100.00;100188.72;5052940;28;20294;-67
2021/09/16 05:18:44;;;;;;;10.63;4.72;;;;;;;13.30;100.00;100185.91;5053348;28;20037;-67
2021/09/16 05:21:12;;;;;;;7.82;4.70;;;;;;;13.31;100.00;100190.28;5038146;28;20437;-66
2021/09/16 05:23:39;;;;;;;12.20;5.18;;;;;;;13.26;100.00;100196.94;5053865;28;20045;-66
2021/09/16 05:26:06;;;;;;;9.80;5.28;;;;;;;13.23;100.00;100189.16;5044868;28;20069;-69
2021/09/16 05:28:33;;;;;;;11.68;5.10;;;;;;;13.29;100.00;100207.47;5047762;28;20084;-68
2021/09/16 05:31:01;;;;;;;12.77;5.07;;;;;;;13.31;100.00;100202.84;5050411;28;20049;-70
2021/09/16 05:33:28;;;;;;;9.82;5.05;;;;;;;13.38;100.00;100196.06;5050106;28;20054;-67
2021/09/16 05:35:55;;;;;;;14.60;5.47;;;;;;;13.38;100.00;100200.56;5053483;28;20032;-70
2021/09/16 05:38:22;;;;;;;14.30;5.45;;;;;;;13.35;100.00;100196.28;5037231;28;20059;-68
2021/09/16 05:40:50;;;;;;;11.30;5.72;;;;;;;13.34;100.00;100205.28;5052608;28;20041;-67
2021/09/16 05:43:17;;;;;;;14.52;5.88;;;;;;;13.35;100.00;100201.63;5053501;28;20072;-68
2021/09/16 05:45:44;;;;;;;15.40;6.18;;;;;;;13.35;100.00;100212.38;5046912;28;20041;-70
2021/09/16 05:48:11;;;;;;;14.27;6.15;;;;;;;13.35;100.00;100209.69;5045772;28;20099;-71
2021/09/16 05:50:38;;;;;;;13.55;5.65;;;;;;;13.42;100.00;100213.63;5046688;28;20096;-72
2021/09/16 05:53:05;;;;;;;10.18;5.78;;;;;;;13.44;100.00;100210.84;5055122;28;20045;-73
2021/09/16 05:55:33;;;;;;;16.25;6.13;;;;;;;13.44;100.00;100213.53;5047450;28;20034;-69
2021/09/16 05:58:01;;;;;;;12.07;6.00;;;;;;;13.46;100.00;100210.78;5038027;28;20128;-71
2021/09/16 06:00:28;;;;;;;12.95;5.82;;;;;;;13.48;100.00;100216.88;5051611;28;20057;-71
2021/09/16 06:02:55;;;;;;;15.07;5.80;;;;;;;13.49;100.00;100219.44;5038382;28;20041;-68
2021/09/16 06:05:23;;;;;;;12.25;5.80;;;;;;;13.53;100.00;100222.78;5039249;28;20092;-70
2021/09/16 06:07:50;;;;;;;15.93;6.70;;;;;;;13.60;100.00;100225.84;5039728;28;20056;-69
2021/09/16 06:10:17;;;;;;;17.63;5.85;;;;;;;13.65;100.00;100229.06;5044143;28;20037;-71
2021/09/16 06:12:44;;;;;;;9.48;5.75;;;;;;;13.65;100.00;100235.28;5056361;28;20041;-71
2021/09/16 06:15:12;;;;;;;14.13;6.25;;;;;;;13.67;100.00;100233.34;5057646;28;20115;-69
2021/09/16 06:17:39;;;;;;;9.95;5.55;;;;;;;13.74;100.00;100227.53;5036961;28;20352;-74
2021/09/16 06:20:07;;;;;;;11.23;5.57;;;;;;;13.71;100.00;100224.13;5053910;28;20051;-69
2021/09/16 06:22:34;;;;;;;10.43;5.53;;;;;;;13.65;100.00;100229.94;5055881;28;20041;-69
2021/09/16 06:25:02;;;;;;;13.57;6.30;;;;;;;13.75;100.00;100230.13;5056192;28;20045;-70
2021/09/16 06:27:29;;;;;;;12.13;6.47;;;;;;;13.80;100.00;100224.41;5057895;28;20094;-71
2021/09/16 06:29:57;;;;;;;10.63;6.10;;;;;;;13.80;100.00;100240.50;5053546;28;20139;-68
2021/09/16 06:32:24;;;;;;;14.80;6.32;;;;;;;13.83;100.00;100232.22;5054926;28;20037;-74
2021/09/16 06:34:51;;;;;;;11.75;5.97;;;;;;;13.77;100.00;100232.69;5045316;28;20045;-68
2021/09/16 06:37:18;;;;;;;9.43;6.07;;;;;;;13.77;100.00;100238.06;5037940;28;20346;-75
2021/09/16 06:39:47;;;;;;;16.20;8.20;;;;;;;13.68;100.00;100223.47;5038131;28;20362;-69
2021/09/16 06:42:14;;;;;;;18.25;6.53;;;;;;;13.79;100.00;100236.09;5041037;28;20045;-72
2021/09/16 06:44:41;;;;;;;11.35;6.65;;;;;;;13.86;100.00;100226.63;5057432;28;20041;-72
2021/09/16 06:47:08;;;;;;;13.80;6.47;;;;;;;13.91;100.00;100227.16;5057342;28;20035;-73
2021/09/16 06:49:45;;;;;;;11.18;6.32;;;;;;;13.96;100.00;100233.00;5057507;28;20171;-72
2021/09/16 06:52:15;;;;;;;14.45;7.15;;;;;;;13.95;100.00;100234.00;5055449;28;20037;-74
2021/09/16 06:54:43;;;;;;;;;;;;;;;13.99;100.00;100239.97;5043557;28;20045;-67
2021/09/16 06:57:11;;;;;;;12.85;6.75;;;;;;;13.94;100.00;100243.00;5046628;28;20202;-70
2021/09/16 06:59:38;;;;;;;13.48;6.60;;;;;;;14.08;100.00;100246.50;5051940;28;20046;-70
2021/09/16 07:02:05;;;;;;;13.20;6.68;;;;;;;14.21;100.00;100246.44;5052695;28;20530;-68
2021/09/16 07:04:38;;;;;;;11.45;5.82;;;;;;;14.28;100.00;100246.84;5056305;28;20072;-68
2021/09/16 07:07:09;;;;;;;16.52;6.93;;;;;;;14.44;100.00;100259.97;5049048;28;20043;-71
2021/09/16 07:09:37;;;;;;;14.43;5.68;;;;;;;14.55;99.64;100251.09;5052134;28;20056;-70
2021/09/16 07:12:04;;;;;;;11.45;5.60;;;;;;;14.62;97.54;100249.63;5056873;28;20132;-68
2021/09/16 07:14:32;;;;;;;12.23;5.78;;;;;;;14.48;98.08;100248.88;5056773;28;20438;-68
2021/09/16 07:16:59;;;;;;;13.98;5.40;;;;;;;14.60;98.47;100255.13;5053199;28;20124;-68
2021/09/16 07:19:28;;;;;;;14.93;6.65;;;;;;;14.66;97.62;100259.19;5055693;28;20098;-67
2021/09/16 07:21:55;;;;;;;10.55;5.80;;;;;;;14.69;98.47;100253.56;5055914;28;20461;-68
2021/09/16 07:24:22;;;;;;;10.68;5.35;;;;;;;14.75;97.97;100260.31;5054119;28;20124;-68
2021/09/16 07:26:52;;;;;;;12.82;5.70;;;;;;;14.69;97.59;100269.69;5056536;28;20033;-68
2021/09/16 07:29:22;;;;;;;13.55;5.53;;;;;;;14.60;98.67;100270.41;5053579;28;20056;-68
2021/09/16 07:31:50;;;;;;;18.02;6.45;;;;;;;14.66;99.17;100261.88;5055080;28;20103;-68
2021/09/16 07:34:19;;;;;;;18.02;6.20;;;;;;;14.51;99.13;100255.84;5054685;28;20338;-68
2021/09/16 07:36:47;;;;;;;11.20;5.55;;;;;;;14.66;98.92;100272.63;5055630;28;20044;-68
2021/09/16 07:39:16;;;;;;;11.85;6.20;;;;;;;14.74;99.30;100270.22;5038274;28;20119;-69
2021/09/16 07:41:43;;;;;;;12.15;5.28;;;;;;;14.76;98.71;100262.06;5055245;28;20087;-69
2021/09/16 07:44:10;;;;;;;11.70;5.70;;;;;;;14.74;98.79;100267.53;5056541;28;20076;-68
2021/09/16 07:46:37;;;;;;;11.60;5.70;;;;;;;14.73;98.75;100271.16;5067817;28;20060;-69
2021/09/16 07:49:04;;;;;;;11.90;5.25;;;;;;;14.75;99.00;100277.31;5055112;28;20051;-69
2021/09/16 07:51:31;;;;;;;9.13;4.80;;;;;;;14.84;98.64;100269.50;5054861;28;20115;-68
2021/09/16 07:53:59;;;;;;;7.55;4.50;;;;;;;14.80;98.10;100275.13;5056011;28;20124;-69
2021/09/16 07:56:26;;;;;;;9.82;4.85;;;;;;;15.02;98.10;100286.88;5056056;28;20045;-69
2021/09/16 07:58:53;;;;;;;12.13;4.70;;;;;;;15.11;97.69;100282.63;5066745;28;20045;-71
2021/09/16 08:01:20;;;;;;;10.23;5.10;;;;;;;15.15;96.17;100285.94;5050031;28;20322;-74
2021/09/16 08:03:48;;;;;;;17.13;5.35;;;;;;;15.18;96.12;100288.38;5039748;28;20061;-70
2021/09/16 08:06:16;;;;;;;10.20;5.30;;;;;;;15.18;95.75;100291.94;5045626;28;20064;-71
2021/09/16 08:08:47;;;;;;;11.27;6.35;;;;;;;15.16;95.12;100291.16;5053243;28;20049;-69
2021/09/16 08:11:15;;;;;;;9.18;6.25;;;;;;;15.12;96.27;100299.59;5048387;28;20115;-68
2021/09/16 08:13:42;;;;;;;12.30;6.40;;;;;;;15.03;96.61;100299.34;5039486;28;20131;-72
2021/09/16 08:16:10;;;;;;;14.65;6.45;;;;;;;15.05;97.11;100299.25;5042670;28;20043;-70
2021/09/16 08:18:37;;;;;;;13.10;6.90;;;;;;;15.10;96.25;100291.69;5053809;28;20397;-71
2021/09/16 08:21:04;;;;;;;12.85;6.95;;;;;;;15.03;96.17;100280.53;5054574;28;20072;-72
2021/09/16 08:23:31;;;;;;;17.65;7.50;;;;;;;15.03;96.66;100288.59;5057180;28;20124;-72
2021/09/16 08:25:58;;;;;;;12.73;7.95;;;;;;;15.02;96.40;100291.41;5047274;28;20379;-72
2021/09/16 08:28:25;;;;;;;16.20;8.40;;;;;;;15.02;96.53;100294.09;5042123;28;20049;-73
2021/09/16 08:30:53;;;;;;;17.23;8.90;;;;;;;15.17;96.08;100297.41;5064888;28;20135;-71
2021/09/16 08:33:21;;;;;;;13.65;9.13;;;;;;;15.24;95.69;100304.03;5038928;28;20356;-71
2021/09/16 08:35:49;;;;;;;15.98;9.75;;;;;;;15.16;94.92;100293.84;5050078;28;20032;-70
2021/09/16 08:38:16;;;;;;;19.90;9.63;;;;;;;15.36;95.44;100286.06;5053676;28;20461;-70
2021/09/16 08:40:44;;;;;;;15.75;10.73;;;;;;;15.34;94.50;100290.72;5047239;28;20095;-72
2021/09/16 08:43:12;;;;;;;16.25;11.50;;;;;;;15.37;94.04;100293.16;5032941;28;20416;-73
2021/09/16 08:45:40;;;;;;;18.50;10.57;;;;;;;15.46;94.68;100291.56;5051216;28;20037;-69
2021/09/16 08:48:08;;;;;;;14.68;9.88;;;;;;;15.54;93.88;100288.25;5048976;28;20098;-71
2021/09/16 08:50:35;;;;;;;14.15;9.15;;;;;;;15.59;94.46;100288.75;5040184;28;20414;-70
2021/09/16 08:53:02;;;;;;;18.58;10.80;;;;;;;15.69;94.94;100291.56;5039661;28;20076;-70
2021/09/16 08:55:29;;;;;;;18.73;11.45;;;;;;;15.63;94.33;100292.06;5052817;28;20068;-70
2021/09/16 08:57:59;;;;;;;22.70;11.55;;;;;;;15.57;94.74;100288.88;5043999;28;20127;-71
2021/09/16 09:00:29;;;;;;;15.48;10.70;;;;;;;15.59;95.09;100300.34;5051686;28;20514;-69
2021/09/16 09:02:57;;;;;;;20.33;12.57;;;;;;;15.59;95.27;100307.59;5064026;28;20369;-73
2021/09/16 09:05:29;;;;;;;16.73;11.75;;;;;;;15.56;95.03;100302.44;5052045;28;20033;-69
2021/09/16 09:07:59;;;;;;;22.52;12.93;;;;;;;15.56;95.07;100305.13;5048116;28;20045;-70
2021/09/16 09:10:48;;;;;;;24.23;13.50;;;;;;;15.56;95.49;100302.44;5043101;28;20045;-73
2021/09/16 09:13:34;;;;;;;18.38;13.05;;;;;;;15.48;96.71;100300.38;5064975;28;20120;-69
2021/09/16 09:16:11;;;;;;;20.73;14.00;;;;;;;15.56;95.47;100291.69;5052942;28;20033;-71
2021/09/16 09:18:47;;;;;;;20.38;13.60;;;;;;;15.63;95.97;100302.81;5064545;28;20144;-72
2021/09/16 09:21:16;;;;;;;16.48;13.10;;;;;;;15.85;95.95;100302.78;5040475;28;20037;-75
2021/09/16 09:23:55;;;;;;;22.83;15.18;;;;;;;16.03;94.42;100310.38;5056315;28;20422;-74
2021/09/16 09:26:31;;;;;;;19.05;13.32;;;;;;;16.18;94.43;100312.78;5042869;28;20033;-71
2021/09/16 09:29:15;;;;;;;19.75;13.15;;;;;;;16.42;92.85;100309.91;5053996;28;20140;-70
2021/09/16 09:32:03;;;;;;;20.83;12.90;;;;;;;16.38;91.86;100309.31;5043867;28;20045;-73
2021/09/16 09:34:34;;;;;;;19.85;13.90;;;;;;;16.50;92.55;100306.56;5045021;28;20052;-69
2021/09/16 09:37:10;;;;;;;20.08;13.25;;;;;;;16.50;92.08;100303.88;5050680;28;20369;-72
2021/09/16 09:39:40;;;;;;;17.80;13.15;;;;;;;16.59;91.75;100305.78;5036093;28;20426;-72
2021/09/16 09:42:28;;;;;;;29.10;12.70;;;;;;;16.55;91.05;100305.19;5047676;28;20430;-71
2021/09/16 09:45:04;;;;;;;25.20;12.93;;;;;;;16.72;90.03;100310.13;5035297;28;20069;-72
2021/09/16 09:47:36;;;;;;;18.63;12.90;;;;;;;16.62;90.05;100310.06;5035051;28;20116;-71
2021/09/16 09:50:06;;;;;;;20.50;12.57;;;;;;;16.75;90.08;100316.13;5036248;28;20053;-72
2021/09/16 09:52:33;;;;;;;16.63;11.50;;;;;;;17.03;89.56;100316.50;5035735;28;20118;-71
2021/09/16 09:55:11;;;;;;;17.33;10.73;;;;;;;16.93;88.25;100329.88;5052247;28;20080;-70
2021/09/16 09:57:38;;;;;;;18.45;10.85;;;;;;;17.02;89.30;100322.00;5035705;28;20073;-71
2021/09/16 10:00:10;;;;;;;16.92;11.98;;;;;;;17.02;88.66;100324.69;5036871;28;20069;-71
2021/09/16 10:02:50;;;;;;;13.45;10.45;;;;;;;17.32;86.64;100323.88;5038695;28;20057;-73
2021/09/16 10:05:29;;;;;;;16.58;9.00;;;;;;;17.70;84.25;100313.41;5038775;28;20057;-73
2021/09/16 10:08:09;;;;;;;14.10;8.98;;;;;;;17.76;82.91;100307.47;5043931;28;20395;-72
2021/09/16 10:10:42;;;;;;;14.47;9.50;;;;;;;17.61;81.98;100306.13;5051322;28;20120;-70
2021/09/16 10:13:17;;;;;;;16.30;8.90;;;;;;;17.43;81.73;100293.28;5054213;28;20044;-71
2021/09/16 10:15:47;;;;;;;15.15;9.00;;;;;;;17.62;83.44;100297.91;5055870;28;20067;-70
2021/09/16 10:18:15;;;;;;;12.88;8.48;;;;;;;17.65;81.79;100292.22;5049510;28;20041;-72
2021/09/16 10:20:42;;;;;;;13.60;9.73;;;;;;;18.01;81.40;100297.16;5038092;28;20072;-72
2021/09/16 10:23:10;;;;;;;16.00;8.38;;;;;;;18.27;78.34;100298.50;5038145;28;20046;-72
2021/09/16 10:25:50;;;;;;;14.10;8.30;;;;;;;18.35;78.56;100295.13;5045539;28;20072;-71
2021/09/16 10:28:18;;;;;;;16.73;8.27;;;;;;;18.29;78.79;100291.09;5037922;28;20120;-70
2021/09/16 10:30:50;;;;;;;15.30;8.20;;;;;;;18.59;77.46;100292.81;5037700;28;20049;-69
2021/09/16 10:33:22;;;;;;;15.40;8.30;;;;;;;18.59;77.92;100298.22;5044278;28;20555;-70
2021/09/16 10:35:58;;;;;;;17.63;7.82;;;;;;;18.72;76.78;100303.34;5043595;28;20064;-68
2021/09/16 10:38:27;;;;;;;14.52;7.85;;;;;;;18.71;76.24;100303.50;5055218;28;20044;-72
2021/09/16 10:41:26;;;;;;;14.32;7.28;;;;;;;18.39;75.68;100291.97;5035911;28;20419;-71
2021/09/16 10:43:59;;;;;;;9.30;5.95;;;;;;;18.47;74.55;100296.69;5050751;28;20064;-71
2021/09/16 10:46:31;;;;;;;8.40;5.50;;;;;;;18.63;75.28;100292.53;5055601;28;20342;-67
2021/09/16 10:49:23;;;;;;;9.80;6.03;;;;;;;18.85;74.73;100294.94;5047996;28;20395;-66
2021/09/16 10:51:57;;;;;;;11.38;6.22;;;;;;;19.01;73.38;100288.06;5057270;28;20369;-72
2021/09/16 10:54:24;;;;;;;8.85;5.22;;;;;;;18.98;70.13;100293.78;5056753;28;20052;-69
2021/09/16 10:57:06;;;;;;;9.18;5.35;;;;;;;18.91;72.17;100289.94;5053530;28;20049;-69
2021/09/16 10:59:51;;;;;;;9.82;5.13;;;;;;;18.80;73.17;100283.69;5054017;28;20041;-71
2021/09/16 11:02:22;;;;;;;8.18;4.43;;;;;;;18.53;70.59;100284.44;5056622;28;20114;-71
2021/09/16 11:04:58;;;;;;;7.97;4.30;;;;;;;18.55;72.91;100288.72;5056855;28;20091;-69
2021/09/16 11:07:32;;;;;;;7.13;3.92;;;;;;;18.50;71.15;100284.72;5053605;28;20029;-73
2021/09/16 11:10:16;;;;;;;5.95;4.18;;;;;;;18.85;70.63;100278.72;5052957;28;20040;-71
2021/09/16 11:12:47;;;;;;;6.65;3.45;;;;;;;19.03;69.85;100277.13;5055378;28;20041;-67
2021/09/16 11:15:18;;;;;;;7.35;3.78;;;;;;;19.03;68.71;100280.72;5052782;28;20101;-70
2021/09/16 11:17:45;;;;;;;9.07;3.80;;;;;;;18.75;70.41;100286.00;5054316;28;20041;-68
2021/09/16 11:20:14;;;;;;;8.35;3.92;;;;;;;18.92;69.84;100287.09;5053606;28;20040;-69
2021/09/16 11:22:42;;;;;;;11.20;4.60;;;;;;;18.77;70.46;100291.25;5072660;28;20163;-70